YPCC

Cocos (Keeling) Islands Airport

Airport
ICAO code
YPCC
IATA Code
CCK
Summary
ICAO Region
APAC
ICAO Territory
Location

,

Serving
Cocos Keeling Island
Elevation
10 ft
Coordinates
12° 11' 18" S , 96° 50' 2" E
Metar
Observation
YPCC 021400Z AUTO 16009KT 9999 // NCD 25/20 Q1010 RF00.0/000.0
Station
Cocos Island Airport
Date/Time
2022-12-02 14:00:00
Wind direction
160°
Wind speed
09 kts
Lowest cloud amount
no clouds detected
Temperature
25°C
Dew point
20°C
Humidity
73%
QNH
1010 hPa
Weather condition
n/a

Airport map

Aerial View

SKYbrary Partners:

Safety knowledge contributed by: